Terminal Aerodrome Forecast
Issued by NWS Cleveland, OH

Home | Current Version | Previous Version | Graphics & Text | Print | Product List | Glossary On
Versions: 1 2 3 4 5 6 7 8 9 10 11 12 13 14 15 16 17 18 19 20 21 22 23 24
000
FTUS41 KCLE 191100
TAFCAK
TAF
KCAK 191120Z 1912/2012 VRB03KT 4SM -RA BR OVC012
     FM191500 15004KT 3SM RA BR BKN020 OVC030
     FM191700 14004KT 6SM SHRA VCTS BKN035CB OVC050
     FM192200 16004KT P6SM VCSH BKN050
     FM200800 00000KT 5SM BR SCT025=

USA.gov is the U.S. government's official web portal to all federal, state and local government web resources and services.